sensor_id;sensor_type;location;lat;lon;timestamp;temperature;humidity
27671;DHT22;15077;49.704;9.908;2023-11-18T00:00:22;10.00;68.50
27671;DHT22;15077;49.704;9.908;2023-11-18T00:02:49;10.00;68.50
27671;DHT22;15077;49.704;9.908;2023-11-18T00:05:15;9.90;68.40
27671;DHT22;15077;49.704;9.908;2023-11-18T00:07:41;9.90;68.40
27671;DHT22;15077;49.704;9.908;2023-11-18T00:10:07;9.90;68.40
27671;DHT22;15077;49.704;9.908;2023-11-18T00:12:34;9.90;68.40
27671;DHT22;15077;49.704;9.908;2023-11-18T00:15:01;9.80;68.30
27671;DHT22;15077;49.704;9.908;2023-11-18T00:17:30;9.80;68.30
27671;DHT22;15077;49.704;9.908;2023-11-18T00:19:56;9.70;68.20
27671;DHT22;15077;49.704;9.908;2023-11-18T00:22:22;9.70;68.20
27671;DHT22;15077;49.704;9.908;2023-11-18T00:24:47;9.70;68.30
27671;DHT22;15077;49.704;9.908;2023-11-18T00:27:13;9.70;68.30
27671;DHT22;15077;49.704;9.908;2023-11-18T00:29:41;9.60;68.30
27671;DHT22;15077;49.704;9.908;2023-11-18T00:32:09;9.60;68.30
27671;DHT22;15077;49.704;9.908;2023-11-18T00:34:34;9.60;68.30
27671;DHT22;15077;49.704;9.908;2023-11-18T00:37:00;9.60;68.30
27671;DHT22;15077;49.704;9.908;2023-11-18T00:39:26;9.50;68.30
27671;DHT22;15077;49.704;9.908;2023-11-18T00:41:52;9.50;68.30
27671;DHT22;15077;49.704;9.908;2023-11-18T00:44:18;9.50;68.20
27671;DHT22;15077;49.704;9.908;2023-11-18T00:46:44;9.50;68.20
27671;DHT22;15077;49.704;9.908;2023-11-18T00:49:09;9.40;68.20
27671;DHT22;15077;49.704;9.908;2023-11-18T00:51:37;9.40;68.20
27671;DHT22;15077;49.704;9.908;2023-11-18T00:54:03;9.40;68.20
27671;DHT22;15077;49.704;9.908;2023-11-18T00:56:33;9.30;68.10
27671;DHT22;15077;49.704;9.908;2023-11-18T00:58:59;9.30;68.10
27671;DHT22;15077;49.704;9.908;2023-11-18T01:01:27;9.30;68.10
27671;DHT22;15077;49.704;9.908;2023-11-18T01:03:53;9.30;68.10
27671;DHT22;15077;49.704;9.908;2023-11-18T01:06:19;9.20;68.10
27671;DHT22;15077;49.704;9.908;2023-11-18T01:08:45;9.20;68.20
27671;DHT22;15077;49.704;9.908;2023-11-18T01:11:20;9.20;68.20
27671;DHT22;15077;49.704;9.908;2023-11-18T01:13:48;9.10;68.10
27671;DHT22;15077;49.704;9.908;2023-11-18T01:16:14;9.10;68.10
27671;DHT22;15077;49.704;9.908;2023-11-18T01:18:40;9.10;68.00
27671;DHT22;15077;49.704;9.908;2023-11-18T01:21:07;9.00;68.00
27671;DHT22;15077;49.704;9.908;2023-11-18T01:23:36;9.00;68.00
27671;DHT22;15077;49.704;9.908;2023-11-18T01:26:06;9.00;68.00
27671;DHT22;15077;49.704;9.908;2023-11-18T01:28:34;8.90;68.00
27671;DHT22;15077;49.704;9.908;2023-11-18T01:31:04;8.90;68.00
27671;DHT22;15077;49.704;9.908;2023-11-18T01:33:31;8.90;67.90
27671;DHT22;15077;49.704;9.908;2023-11-18T01:35:58;8.80;68.50
27671;DHT22;15077;49.704;9.908;2023-11-18T01:38:23;8.80;68.50
27671;DHT22;15077;49.704;9.908;2023-11-18T01:40:51;8.70;67.90
27671;DHT22;15077;49.704;9.908;2023-11-18T01:43:18;8.70;67.90
27671;DHT22;15077;49.704;9.908;2023-11-18T01:45:44;8.70;68.10
27671;DHT22;15077;49.704;9.908;2023-11-18T01:48:10;8.70;67.90
27671;DHT22;15077;49.704;9.908;2023-11-18T01:50:37;8.60;67.80
27671;DHT22;15077;49.704;9.908;2023-11-18T01:53:05;8.60;67.80
27671;DHT22;15077;49.704;9.908;2023-11-18T01:55:39;8.50;67.70
27671;DHT22;15077;49.704;9.908;2023-11-18T01:58:05;8.50;67.70
27671;DHT22;15077;49.704;9.908;2023-11-18T02:00:36;8.50;67.80
27671;DHT22;15077;49.704;9.908;2023-11-18T02:03:05;8.40;67.70
27671;DHT22;15077;49.704;9.908;2023-11-18T02:05:31;8.40;67.70
27671;DHT22;15077;49.704;9.908;2023-11-18T02:08:06;8.40;67.70
27671;DHT22;15077;49.704;9.908;2023-11-18T02:11:20;8.30;67.60
27671;DHT22;15077;49.704;9.908;2023-11-18T02:13:28;8.30;67.60
27671;DHT22;15077;49.704;9.908;2023-11-18T02:15:56;8.20;67.60
27671;DHT22;15077;49.704;9.908;2023-11-18T02:18:26;8.20;67.70
27671;DHT22;15077;49.704;9.908;2023-11-18T02:20:57;8.10;67.70
27671;DHT22;15077;49.704;9.908;2023-11-18T02:23:28;8.10;67.70
27671;DHT22;15077;49.704;9.908;2023-11-18T02:25:54;8.10;67.70
27671;DHT22;15077;49.704;9.908;2023-11-18T02:28:26;8.10;67.70
27671;DHT22;15077;49.704;9.908;2023-11-18T02:30:58;8.00;67.60
27671;DHT22;15077;49.704;9.908;2023-11-18T02:33:35;8.00;67.70
27671;DHT22;15077;49.704;9.908;2023-11-18T02:36:08;7.90;67.60
27671;DHT22;15077;49.704;9.908;2023-11-18T02:38:41;7.90;67.70
27671;DHT22;15077;49.704;9.908;2023-11-18T02:41:11;7.90;67.60
27671;DHT22;15077;49.704;9.908;2023-11-18T02:43:39;7.80;67.60
27671;DHT22;15077;49.704;9.908;2023-11-18T02:46:06;7.80;67.70
27671;DHT22;15077;49.704;9.908;2023-11-18T02:48:33;7.80;67.70
27671;DHT22;15077;49.704;9.908;2023-11-18T02:51:01;7.70;67.70
27671;DHT22;15077;49.704;9.908;2023-11-18T02:53:27;7.70;67.80
27671;DHT22;15077;49.704;9.908;2023-11-18T02:55:53;7.70;67.80
27671;DHT22;15077;49.704;9.908;2023-11-18T02:58:29;7.70;67.80
27671;DHT22;15077;49.704;9.908;2023-11-18T03:00:54;7.70;67.80
27671;DHT22;15077;49.704;9.908;2023-11-18T03:03:23;7.60;67.80
27671;DHT22;15077;49.704;9.908;2023-11-18T03:05:48;7.60;67.80
27671;DHT22;15077;49.704;9.908;2023-11-18T03:08:15;7.60;67.80
27671;DHT22;15077;49.704;9.908;2023-11-18T03:10:41;7.60;67.90
27671;DHT22;15077;49.704;9.908;2023-11-18T03:13:19;7.60;67.80
27671;DHT22;15077;49.704;9.908;2023-11-18T03:15:49;7.50;67.80
27671;DHT22;15077;49.704;9.908;2023-11-18T03:18:15;7.50;67.90
27671;DHT22;15077;49.704;9.908;2023-11-18T03:20:41;7.50;67.90
27671;DHT22;15077;49.704;9.908;2023-11-18T03:23:07;7.50;67.90
27671;DHT22;15077;49.704;9.908;2023-11-18T03:25:36;7.40;67.80
27671;DHT22;15077;49.704;9.908;2023-11-18T03:28:03;7.40;67.90
27671;DHT22;15077;49.704;9.908;2023-11-18T03:30:31;7.40;67.80
27671;DHT22;15077;49.704;9.908;2023-11-18T03:32:57;7.40;67.80
27671;DHT22;15077;49.704;9.908;2023-11-18T03:35:23;7.40;67.80
27671;DHT22;15077;49.704;9.908;2023-11-18T03:37:53;7.40;67.80
27671;DHT22;15077;49.704;9.908;2023-11-18T03:40:20;7.30;67.70
27671;DHT22;15077;49.704;9.908;2023-11-18T03:42:46;7.30;67.80
27671;DHT22;15077;49.704;9.908;2023-11-18T03:45:14;7.30;67.80
27671;DHT22;15077;49.704;9.908;2023-11-18T03:47:42;7.30;67.80
27671;DHT22;15077;49.704;9.908;2023-11-18T03:50:15;7.30;67.80
27671;DHT22;15077;49.704;9.908;2023-11-18T03:52:42;7.30;67.80
27671;DHT22;15077;49.704;9.908;2023-11-18T03:55:07;7.20;67.70
27671;DHT22;15077;49.704;9.908;2023-11-18T03:57:36;7.20;67.70
27671;DHT22;15077;49.704;9.908;2023-11-18T04:00:02;7.20;67.70
27671;DHT22;15077;49.704;9.908;2023-11-18T04:02:28;7.20;67.70
27671;DHT22;15077;49.704;9.908;2023-11-18T04:04:59;7.10;67.70
27671;DHT22;15077;49.704;9.908;2023-11-18T04:07:25;7.10;67.60
27671;DHT22;15077;49.704;9.908;2023-11-18T04:09:51;7.00;67.60
27671;DHT22;15077;49.704;9.908;2023-11-18T04:12:17;7.00;67.60
27671;DHT22;15077;49.704;9.908;2023-11-18T04:14:42;7.00;67.70
27671;DHT22;15077;49.704;9.908;2023-11-18T04:17:08;7.00;67.70
27671;DHT22;15077;49.704;9.908;2023-11-18T04:19:34;7.00;67.60
27671;DHT22;15077;49.704;9.908;2023-11-18T04:22:04;6.90;67.60
27671;DHT22;15077;49.704;9.908;2023-11-18T04:24:30;6.90;67.60
27671;DHT22;15077;49.704;9.908;2023-11-18T04:26:55;6.80;67.60
27671;DHT22;15077;49.704;9.908;2023-11-18T04:29:25;6.80;68.20
27671;DHT22;15077;49.704;9.908;2023-11-18T04:31:52;6.80;67.60
27671;DHT22;15077;49.704;9.908;2023-11-18T04:34:20;6.80;67.70
27671;DHT22;15077;49.704;9.908;2023-11-18T04:36:48;6.70;67.60
27671;DHT22;15077;49.704;9.908;2023-11-18T04:39:19;6.70;67.60
27671;DHT22;15077;49.704;9.908;2023-11-18T04:41:47;6.70;67.60
27671;DHT22;15077;49.704;9.908;2023-11-18T04:44:19;6.70;67.70
27671;DHT22;15077;49.704;9.908;2023-11-18T04:46:45;6.70;67.70
27671;DHT22;15077;49.704;9.908;2023-11-18T04:49:13;6.60;67.70
27671;DHT22;15077;49.704;9.908;2023-11-18T04:51:42;6.60;67.70
27671;DHT22;15077;49.704;9.908;2023-11-18T04:54:11;6.60;67.70
27671;DHT22;15077;49.704;9.908;2023-11-18T04:56:37;6.60;68.30
27671;DHT22;15077;49.704;9.908;2023-11-18T04:59:04;6.60;67.70
27671;DHT22;15077;49.704;9.908;2023-11-18T05:01:31;6.50;68.40
27671;DHT22;15077;49.704;9.908;2023-11-18T05:04:00;6.50;67.80
27671;DHT22;15077;49.704;9.908;2023-11-18T05:06:25;6.50;67.80
27671;DHT22;15077;49.704;9.908;2023-11-18T05:08:52;6.50;67.90
27671;DHT22;15077;49.704;9.908;2023-11-18T05:11:17;6.50;67.90
27671;DHT22;15077;49.704;9.908;2023-11-18T05:13:43;6.50;68.00
27671;DHT22;15077;49.704;9.908;2023-11-18T05:16:12;6.50;68.00
27671;DHT22;15077;49.704;9.908;2023-11-18T05:18:39;6.50;68.00
27671;DHT22;15077;49.704;9.908;2023-11-18T05:21:07;6.50;68.00
27671;DHT22;15077;49.704;9.908;2023-11-18T05:23:38;6.40;68.00
27671;DHT22;15077;49.704;9.908;2023-11-18T05:26:10;6.40;68.00
27671;DHT22;15077;49.704;9.908;2023-11-18T05:28:36;6.40;68.00
27671;DHT22;15077;49.704;9.908;2023-11-18T05:31:02;6.40;68.00
27671;DHT22;15077;49.704;9.908;2023-11-18T05:33:34;6.30;68.00
27671;DHT22;15077;49.704;9.908;2023-11-18T05:36:00;6.30;68.00
27671;DHT22;15077;49.704;9.908;2023-11-18T05:38:30;6.20;68.20
27671;DHT22;15077;49.704;9.908;2023-11-18T05:41:00;6.20;68.10
27671;DHT22;15077;49.704;9.908;2023-11-18T05:43:29;6.10;68.20
27671;DHT22;15077;49.704;9.908;2023-11-18T05:46:04;6.10;68.30
27671;DHT22;15077;49.704;9.908;2023-11-18T05:48:41;6.10;68.40
27671;DHT22;15077;49.704;9.908;2023-11-18T05:51:23;6.10;68.60
27671;DHT22;15077;49.704;9.908;2023-11-18T05:53:50;6.00;68.50
27671;DHT22;15077;49.704;9.908;2023-11-18T05:56:18;6.10;68.70
27671;DHT22;15077;49.704;9.908;2023-11-18T05:58:44;6.10;68.70
27671;DHT22;15077;49.704;9.908;2023-11-18T06:01:11;6.10;68.70
27671;DHT22;15077;49.704;9.908;2023-11-18T06:03:38;6.10;68.80
27671;DHT22;15077;49.704;9.908;2023-11-18T06:06:07;6.10;68.80
27671;DHT22;15077;49.704;9.908;2023-11-18T06:08:35;6.10;68.80
27671;DHT22;15077;49.704;9.908;2023-11-18T06:11:10;6.10;68.80
27671;DHT22;15077;49.704;9.908;2023-11-18T06:13:40;6.10;68.90
27671;DHT22;15077;49.704;9.908;2023-11-18T06:16:17;6.10;68.90
27671;DHT22;15077;49.704;9.908;2023-11-18T06:18:48;6.10;68.90
27671;DHT22;15077;49.704;9.908;2023-11-18T06:21:16;6.20;69.00
27671;DHT22;15077;49.704;9.908;2023-11-18T06:23:45;6.20;69.00
27671;DHT22;15077;49.704;9.908;2023-11-18T06:26:12;6.20;69.10
27671;DHT22;15077;49.704;9.908;2023-11-18T06:28:48;6.20;69.10
27671;DHT22;15077;49.704;9.908;2023-11-18T06:31:18;6.20;69.10
27671;DHT22;15077;49.704;9.908;2023-11-18T06:33:49;6.30;69.10
27671;DHT22;15077;49.704;9.908;2023-11-18T06:38:50;6.30;68.90
27671;DHT22;15077;49.704;9.908;2023-11-18T06:41:18;6.30;68.90
27671;DHT22;15077;49.704;9.908;2023-11-18T06:43:59;6.20;68.90
27671;DHT22;15077;49.704;9.908;2023-11-18T06:46:34;6.20;68.80
27671;DHT22;15077;49.704;9.908;2023-11-18T06:49:02;6.20;68.70
27671;DHT22;15077;49.704;9.908;2023-11-18T06:51:33;6.20;68.70
27671;DHT22;15077;49.704;9.908;2023-11-18T06:54:04;6.20;68.80
27671;DHT22;15077;49.704;9.908;2023-11-18T06:56:39;6.20;68.90
27671;DHT22;15077;49.704;9.908;2023-11-18T06:59:09;6.20;69.00
27671;DHT22;15077;49.704;9.908;2023-11-18T07:01:38;6.20;69.10
27671;DHT22;15077;49.704;9.908;2023-11-18T07:04:10;6.20;69.10
27671;DHT22;15077;49.704;9.908;2023-11-18T07:06:36;6.30;69.10
27671;DHT22;15077;49.704;9.908;2023-11-18T07:09:06;6.30;69.10
27671;DHT22;15077;49.704;9.908;2023-11-18T07:11:42;6.30;69.10
27671;DHT22;15077;49.704;9.908;2023-11-18T07:14:09;6.40;69.10
27671;DHT22;15077;49.704;9.908;2023-11-18T07:16:37;6.40;69.00
27671;DHT22;15077;49.704;9.908;2023-11-18T07:19:06;6.50;69.10
27671;DHT22;15077;49.704;9.908;2023-11-18T07:21:35;6.50;69.10
27671;DHT22;15077;49.704;9.908;2023-11-18T07:24:01;6.60;69.30
27671;DHT22;15077;49.704;9.908;2023-11-18T07:26:30;6.60;69.30
27671;DHT22;15077;49.704;9.908;2023-11-18T07:28:55;6.70;69.60
27671;DHT22;15077;49.704;9.908;2023-11-18T07:31:21;6.70;69.70
27671;DHT22;15077;49.704;9.908;2023-11-18T07:33:47;6.80;69.90
27671;DHT22;15077;49.704;9.908;2023-11-18T07:36:16;6.80;69.80
27671;DHT22;15077;49.704;9.908;2023-11-18T07:38:42;6.90;69.70
27671;DHT22;15077;49.704;9.908;2023-11-18T07:41:11;6.90;69.60
27671;DHT22;15077;49.704;9.908;2023-11-18T07:43:51;7.00;69.50
27671;DHT22;15077;49.704;9.908;2023-11-18T07:46:24;7.00;69.40
27671;DHT22;15077;49.704;9.908;2023-11-18T07:48:53;7.00;69.30
27671;DHT22;15077;49.704;9.908;2023-11-18T07:51:20;7.00;69.30
27671;DHT22;15077;49.704;9.908;2023-11-18T07:53:49;7.00;69.20
27671;DHT22;15077;49.704;9.908;2023-11-18T07:56:15;7.00;69.20
27671;DHT22;15077;49.704;9.908;2023-11-18T07:58:45;7.00;69.20
27671;DHT22;15077;49.704;9.908;2023-11-18T08:01:12;7.00;69.30
27671;DHT22;15077;49.704;9.908;2023-11-18T08:03:38;7.10;69.30
27671;DHT22;15077;49.704;9.908;2023-11-18T08:06:06;7.10;69.30
27671;DHT22;15077;49.704;9.908;2023-11-18T08:08:33;7.10;69.30
27671;DHT22;15077;49.704;9.908;2023-11-18T08:11:04;7.10;69.40
27671;DHT22;15077;49.704;9.908;2023-11-18T08:13:31;7.20;69.40
27671;DHT22;15077;49.704;9.908;2023-11-18T08:15:57;7.10;69.30
27671;DHT22;15077;49.704;9.908;2023-11-18T08:18:26;7.20;69.30
27671;DHT22;15077;49.704;9.908;2023-11-18T08:20:56;7.20;69.20
27671;DHT22;15077;49.704;9.908;2023-11-18T08:23:22;7.20;69.20
27671;DHT22;15077;49.704;9.908;2023-11-18T08:25:48;7.20;69.20
27671;DHT22;15077;49.704;9.908;2023-11-18T08:28:16;7.30;69.30
27671;DHT22;15077;49.704;9.908;2023-11-18T08:30:42;7.30;69.30
27671;DHT22;15077;49.704;9.908;2023-11-18T08:33:07;7.30;69.30
27671;DHT22;15077;49.704;9.908;2023-11-18T08:35:34;7.30;69.20
27671;DHT22;15077;49.704;9.908;2023-11-18T08:38:04;7.30;69.20
27671;DHT22;15077;49.704;9.908;2023-11-18T08:40:32;7.30;69.30
27671;DHT22;15077;49.704;9.908;2023-11-18T08:43:01;7.30;69.30
27671;DHT22;15077;49.704;9.908;2023-11-18T08:45:30;7.40;69.50
27671;DHT22;15077;49.704;9.908;2023-11-18T08:48:00;7.40;69.70
27671;DHT22;15077;49.704;9.908;2023-11-18T08:50:33;7.40;69.70
27671;DHT22;15077;49.704;9.908;2023-11-18T08:53:00;7.50;69.90
27671;DHT22;15077;49.704;9.908;2023-11-18T08:55:30;7.50;70.00
27671;DHT22;15077;49.704;9.908;2023-11-18T08:58:16;7.60;70.10
27671;DHT22;15077;49.704;9.908;2023-11-18T09:00:53;7.70;70.30
27671;DHT22;15077;49.704;9.908;2023-11-18T09:03:22;7.80;70.50
27671;DHT22;15077;49.704;9.908;2023-11-18T09:06:04;7.90;70.60
27671;DHT22;15077;49.704;9.908;2023-11-18T09:08:42;7.90;70.70
27671;DHT22;15077;49.704;9.908;2023-11-18T09:11:13;8.00;70.70
27671;DHT22;15077;49.704;9.908;2023-11-18T09:13:44;8.10;70.80
27671;DHT22;15077;49.704;9.908;2023-11-18T09:16:12;8.20;70.80
27671;DHT22;15077;49.704;9.908;2023-11-18T09:18:39;8.30;70.70
27671;DHT22;15077;49.704;9.908;2023-11-18T09:21:05;8.30;70.70
27671;DHT22;15077;49.704;9.908;2023-11-18T09:23:32;8.40;70.90
27671;DHT22;15077;49.704;9.908;2023-11-18T09:26:03;8.50;71.50
27671;DHT22;15077;49.704;9.908;2023-11-18T09:28:35;8.60;71.70
27671;DHT22;15077;49.704;9.908;2023-11-18T09:31:05;8.70;72.20
27671;DHT22;15077;49.704;9.908;2023-11-18T09:33:37;8.80;72.60
27671;DHT22;15077;49.704;9.908;2023-11-18T09:36:08;9.00;73.00
27671;DHT22;15077;49.704;9.908;2023-11-18T09:38:40;9.20;73.60
27671;DHT22;15077;49.704;9.908;2023-11-18T09:41:06;9.40;74.50
27671;DHT22;15077;49.704;9.908;2023-11-18T09:43:37;9.60;74.90
27671;DHT22;15077;49.704;9.908;2023-11-18T09:46:28;9.90;76.10
27671;DHT22;15077;49.704;9.908;2023-11-18T09:51:44;10.70;75.20
27671;DHT22;15077;49.704;9.908;2023-11-18T10:02:39;11.50;71.40
27671;DHT22;15077;49.704;9.908;2023-11-18T10:05:08;11.50;70.90
27671;DHT22;15077;49.704;9.908;2023-11-18T10:07:39;11.40;70.50
27671;DHT22;15077;49.704;9.908;2023-11-18T10:10:06;11.40;70.20
27671;DHT22;15077;49.704;9.908;2023-11-18T10:12:43;11.30;70.20
27671;DHT22;15077;49.704;9.908;2023-11-18T10:15:18;11.30;69.80
27671;DHT22;15077;49.704;9.908;2023-11-18T10:17:45;11.20;69.80
27671;DHT22;15077;49.704;9.908;2023-11-18T10:20:47;11.10;69.80
27671;DHT22;15077;49.704;9.908;2023-11-18T10:23:17;11.00;69.70
27671;DHT22;15077;49.704;9.908;2023-11-18T10:25:47;10.90;69.80
27671;DHT22;15077;49.704;9.908;2023-11-18T10:30:49;10.80;69.90
27671;DHT22;15077;49.704;9.908;2023-11-18T10:33:16;10.80;70.00
27671;DHT22;15077;49.704;9.908;2023-11-18T10:35:52;10.80;70.00
27671;DHT22;15077;49.704;9.908;2023-11-18T10:38:21;10.70;70.10
27671;DHT22;15077;49.704;9.908;2023-11-18T10:40:54;10.70;70.10
27671;DHT22;15077;49.704;9.908;2023-11-18T10:43:21;10.70;70.10
27671;DHT22;15077;49.704;9.908;2023-11-18T10:45:54;10.60;70.10
27671;DHT22;15077;49.704;9.908;2023-11-18T10:48:30;10.70;69.60
27671;DHT22;15077;49.704;9.908;2023-11-18T10:50:56;10.60;70.00
27671;DHT22;15077;49.704;9.908;2023-11-18T10:53:24;10.60;70.00
27671;DHT22;15077;49.704;9.908;2023-11-18T10:55:51;10.50;70.10
27671;DHT22;15077;49.704;9.908;2023-11-18T10:58:17;10.50;70.20
27671;DHT22;15077;49.704;9.908;2023-11-18T11:00:48;10.50;70.20
27671;DHT22;15077;49.704;9.908;2023-11-18T11:03:16;10.50;70.30
27671;DHT22;15077;49.704;9.908;2023-11-18T11:05:43;10.50;70.40
27671;DHT22;15077;49.704;9.908;2023-11-18T11:08:13;10.50;70.40
27671;DHT22;15077;49.704;9.908;2023-11-18T11:10:40;10.50;70.60
27671;DHT22;15077;49.704;9.908;2023-11-18T11:13:07;10.50;70.60
27671;DHT22;15077;49.704;9.908;2023-11-18T11:15:34;10.60;70.70
27671;DHT22;15077;49.704;9.908;2023-11-18T11:18:08;10.60;70.70
27671;DHT22;15077;49.704;9.908;2023-11-18T11:20:47;10.60;70.70
27671;DHT22;15077;49.704;9.908;2023-11-18T11:26:13;10.60;70.70
27671;DHT22;15077;49.704;9.908;2023-11-18T11:28:58;10.70;70.50
27671;DHT22;15077;49.704;9.908;2023-11-18T11:31:35;10.70;70.50
27671;DHT22;15077;49.704;9.908;2023-11-18T11:34:04;10.70;70.40
27671;DHT22;15077;49.704;9.908;2023-11-18T11:36:37;10.70;70.20
27671;DHT22;15077;49.704;9.908;2023-11-18T11:39:10;10.70;70.30
27671;DHT22;15077;49.704;9.908;2023-11-18T11:41:40;10.70;70.30
27671;DHT22;15077;49.704;9.908;2023-11-18T11:44:13;10.80;70.40
27671;DHT22;15077;49.704;9.908;2023-11-18T11:46:38;10.80;70.40
27671;DHT22;15077;49.704;9.908;2023-11-18T11:49:08;10.80;70.30
27671;DHT22;15077;49.704;9.908;2023-11-18T11:51:54;10.80;70.20
27671;DHT22;15077;49.704;9.908;2023-11-18T11:54:26;10.80;70.20
27671;DHT22;15077;49.704;9.908;2023-11-18T11:56:57;10.80;70.20
27671;DHT22;15077;49.704;9.908;2023-11-18T11:59:36;10.80;70.20
27671;DHT22;15077;49.704;9.908;2023-11-18T12:02:27;10.80;70.20
27671;DHT22;15077;49.704;9.908;2023-11-18T12:04:57;10.80;70.20
27671;DHT22;15077;49.704;9.908;2023-11-18T12:07:27;10.80;70.20
27671;DHT22;15077;49.704;9.908;2023-11-18T12:09:56;10.80;70.20
27671;DHT22;15077;49.704;9.908;2023-11-18T12:12:24;10.90;70.30
27671;DHT22;15077;49.704;9.908;2023-11-18T12:14:56;10.90;70.30
27671;DHT22;15077;49.704;9.908;2023-11-18T12:17:31;10.90;70.50
27671;DHT22;15077;49.704;9.908;2023-11-18T12:23:21;11.00;70.30
27671;DHT22;15077;49.704;9.908;2023-11-18T12:25:50;11.00;70.30
27671;DHT22;15077;49.704;9.908;2023-11-18T12:28:26;11.00;70.30
27671;DHT22;15077;49.704;9.908;2023-11-18T12:30:53;11.00;70.20
27671;DHT22;15077;49.704;9.908;2023-11-18T12:33:26;11.10;70.20
27671;DHT22;15077;49.704;9.908;2023-11-18T12:41:40;11.10;70.20
27671;DHT22;15077;49.704;9.908;2023-11-18T12:46:48;11.20;70.20
27671;DHT22;15077;49.704;9.908;2023-11-18T12:49:37;11.20;70.20
27671;DHT22;15077;49.704;9.908;2023-11-18T12:52:07;11.20;70.20
27671;DHT22;15077;49.704;9.908;2023-11-18T12:54:34;11.20;70.20
27671;DHT22;15077;49.704;9.908;2023-11-18T12:57:03;11.20;70.20
27671;DHT22;15077;49.704;9.908;2023-11-18T12:59:35;11.30;70.20
27671;DHT22;15077;49.704;9.908;2023-11-18T13:02:06;11.20;70.00
27671;DHT22;15077;49.704;9.908;2023-11-18T13:04:33;11.20;70.10
27671;DHT22;15077;49.704;9.908;2023-11-18T13:07:05;11.30;70.10
27671;DHT22;15077;49.704;9.908;2023-11-18T13:09:34;11.30;70.00
27671;DHT22;15077;49.704;9.908;2023-11-18T13:12:02;11.30;70.00
27671;DHT22;15077;49.704;9.908;2023-11-18T13:14:34;11.30;70.00
27671;DHT22;15077;49.704;9.908;2023-11-18T13:17:05;11.30;70.00
27671;DHT22;15077;49.704;9.908;2023-11-18T13:19:36;11.30;70.00
27671;DHT22;15077;49.704;9.908;2023-11-18T13:22:02;11.30;69.90
27671;DHT22;15077;49.704;9.908;2023-11-18T13:24:29;11.30;69.90
27671;DHT22;15077;49.704;9.908;2023-11-18T13:26:56;11.30;69.90
27671;DHT22;15077;49.704;9.908;2023-11-18T13:29:25;11.30;70.00
27671;DHT22;15077;49.704;9.908;2023-11-18T13:31:51;11.30;70.00
27671;DHT22;15077;49.704;9.908;2023-11-18T13:34:17;11.30;70.00
27671;DHT22;15077;49.704;9.908;2023-11-18T13:36:44;11.30;70.00
27671;DHT22;15077;49.704;9.908;2023-11-18T13:39:19;11.30;70.00
27671;DHT22;15077;49.704;9.908;2023-11-18T13:41:47;11.40;70.10
27671;DHT22;15077;49.704;9.908;2023-11-18T13:47:06;11.40;70.00
27671;DHT22;15077;49.704;9.908;2023-11-18T13:49:36;11.40;70.10
27671;DHT22;15077;49.704;9.908;2023-11-18T13:52:05;11.40;70.10
27671;DHT22;15077;49.704;9.908;2023-11-18T13:54:36;11.40;70.10
27671;DHT22;15077;49.704;9.908;2023-11-18T13:57:05;11.40;70.10
27671;DHT22;15077;49.704;9.908;2023-11-18T13:59:32;11.50;70.20
27671;DHT22;15077;49.704;9.908;2023-11-18T14:01:58;11.50;70.10
27671;DHT22;15077;49.704;9.908;2023-11-18T14:04:28;11.50;70.00
27671;DHT22;15077;49.704;9.908;2023-11-18T14:06:57;11.50;70.00
27671;DHT22;15077;49.704;9.908;2023-11-18T14:09:24;11.50;70.00
27671;DHT22;15077;49.704;9.908;2023-11-18T14:11:55;11.50;69.90
27671;DHT22;15077;49.704;9.908;2023-11-18T14:14:22;11.50;69.90
27671;DHT22;15077;49.704;9.908;2023-11-18T14:16:48;11.50;69.90
27671;DHT22;15077;49.704;9.908;2023-11-18T14:19:14;11.60;70.00
27671;DHT22;15077;49.704;9.908;2023-11-18T14:21:40;11.60;69.90
27671;DHT22;15077;49.704;9.908;2023-11-18T14:24:07;11.60;69.90
27671;DHT22;15077;49.704;9.908;2023-11-18T14:26:33;11.60;69.90
27671;DHT22;15077;49.704;9.908;2023-11-18T14:28:59;11.50;69.80
27671;DHT22;15077;49.704;9.908;2023-11-18T14:31:25;11.60;69.90
27671;DHT22;15077;49.704;9.908;2023-11-18T14:33:51;11.60;69.90
27671;DHT22;15077;49.704;9.908;2023-11-18T14:36:17;11.50;69.80
27671;DHT22;15077;49.704;9.908;2023-11-18T14:38:44;11.60;69.90
27671;DHT22;15077;49.704;9.908;2023-11-18T14:41:10;11.60;69.80
27671;DHT22;15077;49.704;9.908;2023-11-18T14:43:36;11.60;69.80
27671;DHT22;15077;49.704;9.908;2023-11-18T14:46:02;11.50;69.80
27671;DHT22;15077;49.704;9.908;2023-11-18T14:48:29;11.50;69.80
27671;DHT22;15077;49.704;9.908;2023-11-18T14:50:54;11.50;69.70
27671;DHT22;15077;49.704;9.908;2023-11-18T14:53:22;11.50;69.80
27671;DHT22;15077;49.704;9.908;2023-11-18T14:55:48;11.50;69.80
27671;DHT22;15077;49.704;9.908;2023-11-18T14:58:14;11.50;69.80
27671;DHT22;15077;49.704;9.908;2023-11-18T15:00:39;11.50;69.90
27671;DHT22;15077;49.704;9.908;2023-11-18T15:03:05;11.50;69.80
27671;DHT22;15077;49.704;9.908;2023-11-18T15:05:31;11.50;69.80
27671;DHT22;15077;49.704;9.908;2023-11-18T15:07:57;11.50;69.80
27671;DHT22;15077;49.704;9.908;2023-11-18T15:10:25;11.50;69.80
27671;DHT22;15077;49.704;9.908;2023-11-18T15:12:52;11.50;69.80
27671;DHT22;15077;49.704;9.908;2023-11-18T15:15:28;11.50;69.80
27671;DHT22;15077;49.704;9.908;2023-11-18T15:17:58;11.50;69.80
27671;DHT22;15077;49.704;9.908;2023-11-18T15:20:24;11.50;69.80
27671;DHT22;15077;49.704;9.908;2023-11-18T15:22:51;11.50;69.80
27671;DHT22;15077;49.704;9.908;2023-11-18T15:25:17;11.50;69.80
27671;DHT22;15077;49.704;9.908;2023-11-18T15:27:43;11.50;69.80
27671;DHT22;15077;49.704;9.908;2023-11-18T15:30:11;11.50;69.80
27671;DHT22;15077;49.704;9.908;2023-11-18T15:32:38;11.50;69.80
27671;DHT22;15077;49.704;9.908;2023-11-18T15:35:06;11.50;69.80
27671;DHT22;15077;49.704;9.908;2023-11-18T15:37:36;11.50;69.80
27671;DHT22;15077;49.704;9.908;2023-11-18T15:40:04;11.50;69.80
27671;DHT22;15077;49.704;9.908;2023-11-18T15:42:39;11.40;69.70
27671;DHT22;15077;49.704;9.908;2023-11-18T15:45:10;11.40;69.70
27671;DHT22;15077;49.704;9.908;2023-11-18T15:47:37;11.40;69.70
27671;DHT22;15077;49.704;9.908;2023-11-18T15:50:04;11.40;69.70
27671;DHT22;15077;49.704;9.908;2023-11-18T15:52:32;11.40;69.70
27671;DHT22;15077;49.704;9.908;2023-11-18T15:55:01;11.40;69.70
27671;DHT22;15077;49.704;9.908;2023-11-18T15:57:28;11.40;69.70
27671;DHT22;15077;49.704;9.908;2023-11-18T15:59:54;11.40;69.70
27671;DHT22;15077;49.704;9.908;2023-11-18T16:02:20;11.40;69.70
27671;DHT22;15077;49.704;9.908;2023-11-18T16:04:46;11.40;69.70
27671;DHT22;15077;49.704;9.908;2023-11-18T16:07:11;11.40;69.70
27671;DHT22;15077;49.704;9.908;2023-11-18T16:09:37;11.40;69.70
27671;DHT22;15077;49.704;9.908;2023-11-18T16:12:03;11.40;69.30
27671;DHT22;15077;49.704;9.908;2023-11-18T16:14:29;11.30;69.40
27671;DHT22;15077;49.704;9.908;2023-11-18T16:16:55;11.30;69.40
27671;DHT22;15077;49.704;9.908;2023-11-18T16:19:23;11.30;69.30
27671;DHT22;15077;49.704;9.908;2023-11-18T16:21:49;11.20;69.00
27671;DHT22;15077;49.704;9.908;2023-11-18T16:24:16;11.20;69.10